sensor_id;sensor_type;location;lat;lon;timestamp;pressure;altitude;pressure_sealevel;temperature;humidity
32197;BME280;18697;42.770;23.400;2023-08-01T00:00:39;95222.19;;;25.15;50.91
32197;BME280;18697;42.770;23.400;2023-08-01T00:03:05;95224.09;;;25.13;50.91
32197;BME280;18697;42.770;23.400;2023-08-01T00:05:30;95222.97;;;25.08;51.30
32197;BME280;18697;42.770;23.400;2023-08-01T00:07:56;95230.91;;;25.10;51.20
32197;BME280;18697;42.770;23.400;2023-08-01T00:10:21;95230.53;;;24.98;51.42
32197;BME280;18697;42.770;23.400;2023-08-01T00:12:46;95214.84;;;24.97;51.36
32197;BME280;18697;42.770;23.400;2023-08-01T00:15:12;95217.28;;;25.01;51.05
32197;BME280;18697;42.770;23.400;2023-08-01T00:17:37;95212.34;;;25.09;50.82
32197;BME280;18697;42.770;23.400;2023-08-01T00:20:03;95216.69;;;25.17;50.89
32197;BME280;18697;42.770;23.400;2023-08-01T00:22:29;95226.72;;;25.18;50.93
32197;BME280;18697;42.770;23.400;2023-08-01T00:24:54;95208.94;;;25.10;50.61
32197;BME280;18697;42.770;23.400;2023-08-01T00:27:20;95218.41;;;24.90;51.10
32197;BME280;18697;42.770;23.400;2023-08-01T00:29:46;95208.75;;;24.93;51.36
32197;BME280;18697;42.770;23.400;2023-08-01T00:32:11;95214.25;;;24.99;51.27
32197;BME280;18697;42.770;23.400;2023-08-01T00:34:37;95213.31;;;25.04;50.89
32197;BME280;18697;42.770;23.400;2023-08-01T00:37:03;95207.41;;;24.94;51.20
32197;BME280;18697;42.770;23.400;2023-08-01T00:39:28;95211.44;;;24.30;52.80
32197;BME280;18697;42.770;23.400;2023-08-01T00:41:53;95215.78;;;24.39;52.89
32197;BME280;18697;42.770;23.400;2023-08-01T00:44:19;95222.97;;;24.40;52.95
32197;BME280;18697;42.770;23.400;2023-08-01T00:46:45;95224.13;;;24.44;52.64
32197;BME280;18697;42.770;23.400;2023-08-01T00:49:10;95221.66;;;24.48;52.67
32197;BME280;18697;42.770;23.400;2023-08-01T00:51:36;95213.91;;;24.49;52.62
32197;BME280;18697;42.770;23.400;2023-08-01T00:54:02;95225.25;;;24.49;52.67
32197;BME280;18697;42.770;23.400;2023-08-01T00:56:27;95224.28;;;24.54;52.54
32197;BME280;18697;42.770;23.400;2023-08-01T00:58:53;95213.50;;;24.52;52.55
32197;BME280;18697;42.770;23.400;2023-08-01T01:01:19;95199.44;;;24.09;54.07
32197;BME280;18697;42.770;23.400;2023-08-01T01:03:45;95208.75;;;24.24;53.44
32197;BME280;18697;42.770;23.400;2023-08-01T01:06:28;95201.91;;;24.05;53.74
32197;BME280;18697;42.770;23.400;2023-08-01T01:08:56;95204.75;;;24.20;53.56
32197;BME280;18697;42.770;23.400;2023-08-01T01:11:22;95205.56;;;24.36;53.09
32197;BME280;18697;42.770;23.400;2023-08-01T01:13:47;95202.56;;;24.49;52.66
32197;BME280;18697;42.770;23.400;2023-08-01T01:16:13;95199.31;;;24.60;52.57
32197;BME280;18697;42.770;23.400;2023-08-01T01:18:38;95203.84;;;24.63;52.23
32197;BME280;18697;42.770;23.400;2023-08-01T01:21:03;95205.75;;;24.61;52.44
32197;BME280;18697;42.770;23.400;2023-08-01T01:23:30;95206.88;;;24.65;52.13
32197;BME280;18697;42.770;23.400;2023-08-01T01:25:58;95191.16;;;24.56;52.39
32197;BME280;18697;42.770;23.400;2023-08-01T01:28:24;95197.41;;;24.55;52.06
32197;BME280;18697;42.770;23.400;2023-08-01T01:30:51;95194.56;;;24.55;51.95
32197;BME280;18697;42.770;23.400;2023-08-01T01:33:18;95195.72;;;24.52;51.96
32197;BME280;18697;42.770;23.400;2023-08-01T01:35:44;95188.91;;;24.55;52.07
32197;BME280;18697;42.770;23.400;2023-08-01T01:38:10;95191.91;;;24.65;51.71
32197;BME280;18697;42.770;23.400;2023-08-01T01:40:35;95195.69;;;24.75;51.41
32197;BME280;18697;42.770;23.400;2023-08-01T01:43:01;95199.50;;;24.70;51.55
32197;BME280;18697;42.770;23.400;2023-08-01T01:45:27;95198.72;;;24.69;51.09
32197;BME280;18697;42.770;23.400;2023-08-01T01:47:52;95191.72;;;24.63;51.82
32197;BME280;18697;42.770;23.400;2023-08-01T01:50:18;95197.41;;;24.70;51.61
32197;BME280;18697;42.770;23.400;2023-08-01T01:52:45;95194.94;;;24.74;51.23
32197;BME280;18697;42.770;23.400;2023-08-01T01:55:10;95197.22;;;24.76;50.87
32197;BME280;18697;42.770;23.400;2023-08-01T01:57:36;95197.03;;;24.81;50.65
32197;BME280;18697;42.770;23.400;2023-08-01T02:00:05;95192.09;;;24.82;50.49
32197;BME280;18697;42.770;23.400;2023-08-01T02:02:31;95193.25;;;24.79;50.74
32197;BME280;18697;42.770;23.400;2023-08-01T02:04:56;95188.88;;;24.78;50.68
32197;BME280;18697;42.770;23.400;2023-08-01T02:07:22;95195.31;;;24.78;50.31
32197;BME280;18697;42.770;23.400;2023-08-01T02:09:47;95181.69;;;24.69;50.46
32197;BME280;18697;42.770;23.400;2023-08-01T02:12:12;95192.69;;;24.73;50.13
32197;BME280;18697;42.770;23.400;2023-08-01T02:14:40;95192.09;;;24.74;50.18
32197;BME280;18697;42.770;23.400;2023-08-01T03:31:42;95207.78;;;24.22;49.11
32197;BME280;18697;42.770;23.400;2023-08-01T03:34:07;95218.19;;;24.19;49.16
32197;BME280;18697;42.770;23.400;2023-08-01T03:36:34;95209.84;;;24.14;49.06
32197;BME280;18697;42.770;23.400;2023-08-01T03:38:59;95208.91;;;24.19;49.18
32197;BME280;18697;42.770;23.400;2023-08-01T03:41:25;95208.72;;;24.17;48.99
32197;BME280;18697;42.770;23.400;2023-08-01T03:43:50;95208.91;;;24.19;48.77
32197;BME280;18697;42.770;23.400;2023-08-01T03:46:15;95215.34;;;24.12;49.17
32197;BME280;18697;42.770;23.400;2023-08-01T03:48:41;95218.75;;;24.18;48.98
32197;BME280;18697;42.770;23.400;2023-08-01T03:51:08;95228.97;;;24.21;49.09
32197;BME280;18697;42.770;23.400;2023-08-01T03:53:33;95221.78;;;24.20;49.02
32197;BME280;18697;42.770;23.400;2023-08-01T03:55:59;95221.78;;;24.20;49.03
32197;BME280;18697;42.770;23.400;2023-08-01T03:58:24;95228.59;;;24.24;49.04
32197;BME280;18697;42.770;23.400;2023-08-01T04:00:49;95218.94;;;24.20;48.87
32197;BME280;18697;42.770;23.400;2023-08-01T04:03:15;95228.41;;;24.22;48.75
32197;BME280;18697;42.770;23.400;2023-08-01T04:05:40;95221.41;;;24.23;48.67
32197;BME280;18697;42.770;23.400;2023-08-01T04:08:06;95214.59;;;24.19;48.90
32197;BME280;18697;42.770;23.400;2023-08-01T04:10:31;95221.41;;;24.23;48.61
32197;BME280;18697;42.770;23.400;2023-08-01T04:12:57;95223.66;;;24.17;49.02
32197;BME280;18697;42.770;23.400;2023-08-01T04:15:22;95228.75;;;24.11;49.37
32197;BME280;18697;42.770;23.400;2023-08-01T04:17:47;95233.13;;;24.12;49.42
32197;BME280;18697;42.770;23.400;2023-08-01T04:20:13;95237.25;;;24.04;49.45
32197;BME280;18697;42.770;23.400;2023-08-01T04:22:38;95233.78;;;23.82;50.41
32197;BME280;18697;42.770;23.400;2023-08-01T04:25:04;95232.84;;;23.80;50.16
32197;BME280;18697;42.770;23.400;2023-08-01T04:27:29;95227.16;;;23.80;50.19
32197;BME280;18697;42.770;23.400;2023-08-01T04:29:55;95232.50;;;23.91;50.17
32197;BME280;18697;42.770;23.400;2023-08-01T04:32:21;95234.56;;;23.90;50.28
32197;BME280;18697;42.770;23.400;2023-08-01T04:34:46;95234.78;;;23.92;49.97
32197;BME280;18697;42.770;23.400;2023-08-01T04:37:11;95238.34;;;23.85;50.32
32197;BME280;18697;42.770;23.400;2023-08-01T04:39:37;95233.44;;;23.93;50.06
32197;BME280;18697;42.770;23.400;2023-08-01T04:42:02;95234.41;;;23.96;50.51
32197;BME280;18697;42.770;23.400;2023-08-01T04:44:28;95236.50;;;24.03;50.32
32197;BME280;18697;42.770;23.400;2023-08-01T04:46:54;95231.03;;;24.05;50.27
32197;BME280;18697;42.770;23.400;2023-08-01T04:49:20;95225.34;;;24.05;50.53
32197;BME280;18697;42.770;23.400;2023-08-01T04:51:45;95226.09;;;24.06;50.70
32197;BME280;18697;42.770;23.400;2023-08-01T04:54:10;95219.13;;;24.07;50.84
32197;BME280;18697;42.770;23.400;2023-08-01T04:56:36;95230.09;;;24.10;50.92
32197;BME280;18697;42.770;23.400;2023-08-01T04:59:01;95220.84;;;24.17;51.30
32197;BME280;18697;42.770;23.400;2023-08-01T05:01:27;95228.97;;;24.13;51.29
32197;BME280;18697;42.770;23.400;2023-08-01T05:03:52;95224.97;;;23.50;53.27
32197;BME280;18697;42.770;23.400;2023-08-01T05:06:18;95215.66;;;23.42;54.00
32197;BME280;18697;42.770;23.400;2023-08-01T05:08:44;95219.47;;;23.44;53.45
32197;BME280;18697;42.770;23.400;2023-08-01T05:11:09;95213.38;;;22.97;55.86
32197;BME280;18697;42.770;23.400;2023-08-01T05:13:34;95221.19;;;22.83;55.72
32197;BME280;18697;42.770;23.400;2023-08-01T05:16:00;95219.84;;;23.12;55.39
32197;BME280;18697;42.770;23.400;2023-08-01T05:18:26;95217.88;;;23.28;54.45
32197;BME280;18697;42.770;23.400;2023-08-01T05:20:51;95224.88;;;23.35;55.57
32197;BME280;18697;42.770;23.400;2023-08-01T05:23:17;95223.25;;;23.47;54.62
32197;BME280;18697;42.770;23.400;2023-08-01T05:25:42;95235.25;;;23.61;54.38
32197;BME280;18697;42.770;23.400;2023-08-01T05:28:07;95225.66;;;23.71;53.87
32197;BME280;18697;42.770;23.400;2023-08-01T05:30:33;95224.72;;;23.76;53.76
32197;BME280;18697;42.770;23.400;2023-08-01T05:32:58;95227.91;;;23.37;55.86
32197;BME280;18697;42.770;23.400;2023-08-01T05:35:24;95230.13;;;23.59;54.96
32197;BME280;18697;42.770;23.400;2023-08-01T05:37:49;95230.16;;;22.74;57.99
32197;BME280;18697;42.770;23.400;2023-08-01T05:40:14;95230.81;;;22.38;60.07
32197;BME280;18697;42.770;23.400;2023-08-01T05:42:40;95242.22;;;21.91;61.53
32197;BME280;18697;42.770;23.400;2023-08-01T05:45:05;95244.69;;;21.60;63.69
32197;BME280;18697;42.770;23.400;2023-08-01T05:47:31;95234.91;;;22.09;61.84
32197;BME280;18697;42.770;23.400;2023-08-01T05:49:56;95244.19;;;21.83;63.74
32197;BME280;18697;42.770;23.400;2023-08-01T05:52:22;95235.56;;;21.54;63.65
32197;BME280;18697;42.770;23.400;2023-08-01T05:54:47;95242.06;;;21.62;64.56
32197;BME280;18697;42.770;23.400;2023-08-01T05:57:13;95232.75;;;22.02;62.44
32197;BME280;18697;42.770;23.400;2023-08-01T05:59:38;95241.47;;;22.24;61.51
32197;BME280;18697;42.770;23.400;2023-08-01T06:02:04;95238.13;;;22.54;60.03
32197;BME280;18697;42.770;23.400;2023-08-01T06:04:29;95228.59;;;22.86;59.76
32197;BME280;18697;42.770;23.400;2023-08-01T06:06:55;95223.44;;;23.13;59.63
32197;BME280;18697;42.770;23.400;2023-08-01T06:09:21;95224.09;;;23.26;58.64
32197;BME280;18697;42.770;23.400;2023-08-01T06:11:46;95221.13;;;23.40;58.59
32197;BME280;18697;42.770;23.400;2023-08-01T06:14:12;95229.47;;;23.45;59.16
32197;BME280;18697;42.770;23.400;2023-08-01T06:16:37;95232.06;;;23.36;59.21
32197;BME280;18697;42.770;23.400;2023-08-01T06:19:02;95223.84;;;23.53;58.55
32197;BME280;18697;42.770;23.400;2023-08-01T06:21:28;95216.03;;;23.82;59.52
32197;BME280;18697;42.770;23.400;2023-08-01T06:23:54;95211.81;;;23.60;58.47
32197;BME280;18697;42.770;23.400;2023-08-01T06:26:19;95216.97;;;23.84;58.28
32197;BME280;18697;42.770;23.400;2023-08-01T06:28:44;95213.94;;;23.82;57.41
32197;BME280;18697;42.770;23.400;2023-08-01T06:31:10;95217.59;;;24.06;56.91
32197;BME280;18697;42.770;23.400;2023-08-01T06:33:35;95210.78;;;24.01;57.76
32197;BME280;18697;42.770;23.400;2023-08-01T06:36:00;95206.28;;;24.21;57.44
32197;BME280;18697;42.770;23.400;2023-08-01T06:38:26;95204.25;;;24.29;57.10
32197;BME280;18697;42.770;23.400;2023-08-01T06:40:51;95204.25;;;24.29;56.43
32197;BME280;18697;42.770;23.400;2023-08-01T06:43:16;95205.84;;;23.94;58.65
32197;BME280;18697;42.770;23.400;2023-08-01T06:45:42;95202.78;;;23.84;58.45
32197;BME280;18697;42.770;23.400;2023-08-01T06:48:07;95204.88;;;23.76;59.03
32197;BME280;18697;42.770;23.400;2023-08-01T06:50:34;95192.56;;;23.66;60.06
32197;BME280;18697;42.770;23.400;2023-08-01T06:52:59;95201.72;;;24.10;57.93
32197;BME280;18697;42.770;23.400;2023-08-01T06:55:26;95194.53;;;24.09;57.81
32197;BME280;18697;42.770;23.400;2023-08-01T06:57:51;95201.00;;;24.25;57.80
32197;BME280;18697;42.770;23.400;2023-08-01T07:00:17;95199.13;;;24.43;56.87
32197;BME280;18697;42.770;23.400;2023-08-01T07:02:42;95198.75;;;24.31;56.19
32197;BME280;18697;42.770;23.400;2023-08-01T07:05:08;95197.97;;;24.76;56.17
32197;BME280;18697;42.770;23.400;2023-08-01T07:07:33;95198.53;;;24.98;54.26
32197;BME280;18697;42.770;23.400;2023-08-01T07:09:59;95195.50;;;24.65;54.02
32197;BME280;18697;42.770;23.400;2023-08-01T07:12:24;95192.41;;;23.95;54.72
32197;BME280;18697;42.770;23.400;2023-08-01T07:14:50;95188.28;;;24.03;54.99
32197;BME280;18697;42.770;23.400;2023-08-01T07:17:15;95192.66;;;24.19;54.79
32197;BME280;18697;42.770;23.400;2023-08-01T07:19:40;95194.59;;;24.47;54.79
32197;BME280;18697;42.770;23.400;2023-08-01T07:22:06;95192.47;;;24.86;54.37
32197;BME280;18697;42.770;23.400;2023-08-01T07:24:31;95189.28;;;24.67;53.58
32197;BME280;18697;42.770;23.400;2023-08-01T07:26:56;95185.66;;;24.74;53.96
32197;BME280;18697;42.770;23.400;2023-08-01T07:29:22;95182.63;;;25.02;54.30
32197;BME280;18697;42.770;23.400;2023-08-01T07:31:47;95174.84;;;24.95;52.49
32197;BME280;18697;42.770;23.400;2023-08-01T07:34:13;95177.47;;;25.16;52.68
32197;BME280;18697;42.770;23.400;2023-08-01T07:36:38;95181.25;;;25.18;51.19
32197;BME280;18697;42.770;23.400;2023-08-01T07:39:03;95184.81;;;25.27;52.04
32197;BME280;18697;42.770;23.400;2023-08-01T07:41:29;95181.81;;;25.25;52.45
32197;BME280;18697;42.770;23.400;2023-08-01T07:43:54;95170.50;;;25.57;49.51
32197;BME280;18697;42.770;23.400;2023-08-01T07:46:20;95179.19;;;25.59;49.11
32197;BME280;18697;42.770;23.400;2023-08-01T07:48:45;95172.63;;;25.89;49.23
32197;BME280;18697;42.770;23.400;2023-08-01T07:51:10;95171.06;;;25.96;48.55
32197;BME280;18697;42.770;23.400;2023-08-01T07:53:37;95175.19;;;26.02;47.92
32197;BME280;18697;42.770;23.400;2023-08-01T07:56:02;95179.94;;;26.32;48.32
32197;BME280;18697;42.770;23.400;2023-08-01T07:58:29;95173.88;;;26.28;46.60
32197;BME280;18697;42.770;23.400;2023-08-01T08:00:54;95166.97;;;25.81;46.91
32197;BME280;18697;42.770;23.400;2023-08-01T08:03:20;95170.69;;;25.99;46.91
32197;BME280;18697;42.770;23.400;2023-08-01T08:05:48;95167.31;;;26.18;49.54
32197;BME280;18697;42.770;23.400;2023-08-01T08:08:13;95164.72;;;26.62;48.94
32197;BME280;18697;42.770;23.400;2023-08-01T08:10:39;95165.34;;;26.53;47.35
32197;BME280;18697;42.770;23.400;2023-08-01T08:30:47;95142.97;;;27.88;42.66
32197;BME280;18697;42.770;23.400;2023-08-01T08:33:19;95149.97;;;28.04;41.77
32197;BME280;18697;42.770;23.400;2023-08-01T08:35:45;95135.28;;;27.80;44.06
32197;BME280;18697;42.770;23.400;2023-08-01T08:38:10;95134.44;;;27.26;45.06
32197;BME280;18697;42.770;23.400;2023-08-01T08:40:40;95132.25;;;27.17;44.25
32197;BME280;18697;42.770;23.400;2023-08-01T08:43:07;95130.53;;;26.79;43.38
32197;BME280;18697;42.770;23.400;2023-08-01T08:45:35;95124.78;;;27.22;43.80
32197;BME280;18697;42.770;23.400;2023-08-01T08:48:02;95126.72;;;27.36;44.14
32197;BME280;18697;42.770;23.400;2023-08-01T08:50:33;95125.16;;;27.53;46.14
32197;BME280;18697;42.770;23.400;2023-08-01T08:52:58;95121.38;;;27.67;44.10
32197;BME280;18697;42.770;23.400;2023-08-01T08:55:25;95118.59;;;27.33;43.89
32197;BME280;18697;42.770;23.400;2023-08-01T08:57:52;95124.44;;;27.79;45.79
32197;BME280;18697;42.770;23.400;2023-08-01T09:00:19;95120.44;;;28.19;44.55
32197;BME280;18697;42.770;23.400;2023-08-01T09:02:45;95117.84;;;28.50;43.63
32197;BME280;18697;42.770;23.400;2023-08-01T09:05:10;95111.16;;;28.74;44.21
32197;BME280;18697;42.770;23.400;2023-08-01T09:07:39;95114.81;;;29.03;44.44
32197;BME280;18697;42.770;23.400;2023-08-01T09:10:07;95105.41;;;28.64;43.48
32197;BME280;18697;42.770;23.400;2023-08-01T09:12:35;95104.88;;;29.04;43.02
32197;BME280;18697;42.770;23.400;2023-08-01T09:15:01;95103.22;;;29.11;42.60
32197;BME280;18697;42.770;23.400;2023-08-01T09:17:26;95096.59;;;29.08;41.52
32197;BME280;18697;42.770;23.400;2023-08-01T09:20:02;95102.00;;;29.33;40.17
32197;BME280;18697;42.770;23.400;2023-08-01T09:22:29;95091.31;;;29.63;41.59
32197;BME280;18697;42.770;23.400;2023-08-01T09:24:54;95102.66;;;29.92;41.55
32197;BME280;18697;42.770;23.400;2023-08-01T09:27:21;95094.47;;;30.17;41.58
32197;BME280;18697;42.770;23.400;2023-08-01T09:29:47;95101.34;;;30.33;39.22
32197;BME280;18697;42.770;23.400;2023-08-01T09:32:13;95097.75;;;30.54;38.50
32197;BME280;18697;42.770;23.400;2023-08-01T09:34:40;95089.13;;;30.64;37.60
32197;BME280;18697;42.770;23.400;2023-08-01T09:37:05;95097.66;;;30.73;36.12
32197;BME280;18697;42.770;23.400;2023-08-01T09:39:31;95099.41;;;30.57;34.73
32197;BME280;18697;42.770;23.400;2023-08-01T09:41:59;95089.88;;;30.33;36.62
32197;BME280;18697;42.770;23.400;2023-08-01T09:44:27;95085.75;;;29.26;36.05
32197;BME280;18697;42.770;23.400;2023-08-01T09:47:03;95083.63;;;29.65;35.75
32197;BME280;18697;42.770;23.400;2023-08-01T09:49:29;95091.00;;;29.68;33.11
32197;BME280;18697;42.770;23.400;2023-08-01T09:51:55;95082.47;;;29.20;34.73
32197;BME280;18697;42.770;23.400;2023-08-01T09:54:21;95076.84;;;29.70;36.12
32197;BME280;18697;42.770;23.400;2023-08-01T09:56:49;95059.41;;;29.97;37.45
32197;BME280;18697;42.770;23.400;2023-08-01T09:59:23;95069.41;;;30.27;37.68
32197;BME280;18697;42.770;23.400;2023-08-01T10:01:50;95066.97;;;30.55;36.85
32197;BME280;18697;42.770;23.400;2023-08-01T10:04:18;95060.81;;;30.80;34.89
32197;BME280;18697;42.770;23.400;2023-08-01T10:06:48;95065.25;;;30.92;35.38
32197;BME280;18697;42.770;23.400;2023-08-01T10:09:15;95060.72;;;31.11;34.98
32197;BME280;18697;42.770;23.400;2023-08-01T10:11:41;95049.44;;;31.24;34.89
32197;BME280;18697;42.770;23.400;2023-08-01T10:14:08;95055.72;;;31.32;32.49
32197;BME280;18697;42.770;23.400;2023-08-01T10:16:36;95044.69;;;31.50;33.79
32197;BME280;18697;42.770;23.400;2023-08-01T10:19:02;95043.75;;;31.69;33.14
32197;BME280;18697;42.770;23.400;2023-08-01T10:21:28;95037.78;;;31.77;34.55
32197;BME280;18697;42.770;23.400;2023-08-01T10:23:55;95038.13;;;31.71;33.44
32197;BME280;18697;42.770;23.400;2023-08-01T10:26:23;95049.28;;;30.89;33.38
32197;BME280;18697;42.770;23.400;2023-08-01T10:28:50;95028.00;;;31.25;33.93
32197;BME280;18697;42.770;23.400;2023-08-01T10:31:18;95021.50;;;31.58;35.68
32197;BME280;18697;42.770;23.400;2023-08-01T10:33:45;95014.56;;;31.73;35.48
32197;BME280;18697;42.770;23.400;2023-08-01T10:36:22;95009.97;;;31.91;32.77
32197;BME280;18697;42.770;23.400;2023-08-01T10:38:51;95017.56;;;31.86;32.21
32197;BME280;18697;42.770;23.400;2023-08-01T10:41:36;95014.69;;;31.98;32.72
32197;BME280;18697;42.770;23.400;2023-08-01T10:44:14;95007.69;;;32.01;33.72
32197;BME280;18697;42.770;23.400;2023-08-01T10:49:15;94998.06;;;31.96;34.33
32197;BME280;18697;42.770;23.400;2023-08-01T10:51:42;95001.56;;;32.18;34.06
32197;BME280;18697;42.770;23.400;2023-08-01T10:54:18;94997.31;;;32.19;32.35
32197;BME280;18697;42.770;23.400;2023-08-01T10:56:45;94998.84;;;32.44;33.21
32197;BME280;18697;42.770;23.400;2023-08-01T10:59:13;94995.78;;;32.65;33.30
32197;BME280;18697;42.770;23.400;2023-08-01T11:01:47;94995.38;;;32.82;32.89
32197;BME280;18697;42.770;23.400;2023-08-01T11:04:20;94993.91;;;33.07;32.35
32197;BME280;18697;42.770;23.400;2023-08-01T11:06:50;94988.28;;;33.09;30.93
32197;BME280;18697;42.770;23.400;2023-08-01T11:09:18;94983.34;;;33.23;31.83
32197;BME280;18697;42.770;23.400;2023-08-01T11:11:43;94989.69;;;33.33;31.97
32197;BME280;18697;42.770;23.400;2023-08-01T11:14:11;94975.94;;;33.32;32.56
32197;BME280;18697;42.770;23.400;2023-08-01T11:16:37;94981.28;;;33.37;30.41
32197;BME280;18697;42.770;23.400;2023-08-01T11:19:02;94982.59;;;33.22;29.79
32197;BME280;18697;42.770;23.400;2023-08-01T11:21:28;94974.81;;;32.99;30.63
32197;BME280;18697;42.770;23.400;2023-08-01T11:23:53;94967.16;;;33.04;32.32
32197;BME280;18697;42.770;23.400;2023-08-01T11:26:19;94962.44;;;33.22;30.92
32197;BME280;18697;42.770;23.400;2023-08-01T11:28:45;94954.78;;;33.27;31.65
32197;BME280;18697;42.770;23.400;2023-08-01T11:31:11;94951.03;;;33.50;32.33
32197;BME280;18697;42.770;23.400;2023-08-01T11:33:37;94958.78;;;33.34;29.77
32197;BME280;18697;42.770;23.400;2023-08-01T11:36:04;94954.78;;;33.52;31.19
32197;BME280;18697;42.770;23.400;2023-08-01T11:38:32;94951.28;;;33.68;31.23
32197;BME280;18697;42.770;23.400;2023-08-01T11:41:04;94953.00;;;33.73;30.56
32197;BME280;18697;42.770;23.400;2023-08-01T11:43:38;94956.69;;;33.87;31.19
32197;BME280;18697;42.770;23.400;2023-08-01T11:46:04;94957.22;;;33.83;29.40
32197;BME280;18697;42.770;23.400;2023-08-01T11:48:30;94947.09;;;33.96;29.70
32197;BME280;18697;42.770;23.400;2023-08-01T11:50:59;94947.72;;;33.81;30.14
32197;BME280;18697;42.770;23.400;2023-08-01T11:53:25;94942.53;;;33.26;29.94
32197;BME280;18697;42.770;23.400;2023-08-01T11:55:51;94941.59;;;32.85;29.52
32197;BME280;18697;42.770;23.400;2023-08-01T11:58:32;94932.19;;;33.21;29.81
32197;BME280;18697;42.770;23.400;2023-08-01T12:01:10;94926.28;;;33.45;31.56
32197;BME280;18697;42.770;23.400;2023-08-01T12:03:52;94916.53;;;33.63;31.13
32197;BME280;18697;42.770;23.400;2023-08-01T12:06:20;94907.25;;;33.65;30.33
32197;BME280;18697;42.770;23.400;2023-08-01T12:08:48;94912.41;;;33.80;30.00
32197;BME280;18697;42.770;23.400;2023-08-01T12:11:32;94906.88;;;33.98;30.18
32197;BME280;18697;42.770;23.400;2023-08-01T12:14:02;94906.88;;;33.98;28.56
32197;BME280;18697;42.770;23.400;2023-08-01T12:16:28;94914.13;;;33.85;28.75
32197;BME280;18697;42.770;23.400;2023-08-01T12:18:53;94901.94;;;33.73;28.77
32197;BME280;18697;42.770;23.400;2023-08-01T12:21:19;94898.41;;;33.75;30.55
32197;BME280;18697;42.770;23.400;2023-08-01T12:23:44;94896.56;;;33.40;30.39
32197;BME280;18697;42.770;23.400;2023-08-01T12:26:10;94880.91;;;33.71;30.79
32197;BME280;18697;42.770;23.400;2023-08-01T12:28:36;94884.63;;;33.59;29.58
32197;BME280;18697;42.770;23.400;2023-08-01T12:31:01;94888.19;;;32.93;28.71
32197;BME280;18697;42.770;23.400;2023-08-01T12:33:26;94879.66;;;32.95;29.92
32197;BME280;18697;42.770;23.400;2023-08-01T12:35:52;94885.41;;;32.95;29.05
32197;BME280;18697;42.770;23.400;2023-08-01T12:38:17;94879.19;;;32.13;30.33
32197;BME280;18697;42.770;23.400;2023-08-01T12:40:42;94878.06;;;32.30;29.86
32197;BME280;18697;42.770;23.400;2023-08-01T12:43:08;94868.09;;;32.56;31.11
32197;BME280;18697;42.770;23.400;2023-08-01T12:45:33;94869.69;;;32.34;30.99
32197;BME280;18697;42.770;23.400;2023-08-01T12:47:58;94867.72;;;32.25;30.42
32197;BME280;18697;42.770;23.400;2023-08-01T12:50:24;94856.28;;;32.39;32.29
32197;BME280;18697;42.770;23.400;2023-08-01T12:52:49;94854.09;;;32.62;32.07
32197;BME280;18697;42.770;23.400;2023-08-01T12:55:15;94851.72;;;32.84;31.20
32197;BME280;18697;42.770;23.400;2023-08-01T12:57:40;94848.81;;;33.10;30.57
32197;BME280;18697;42.770;23.400;2023-08-01T13:00:06;94865.09;;;33.30;29.13
32197;BME280;18697;42.770;23.400;2023-08-01T13:02:35;94858.19;;;33.36;29.40
32197;BME280;18697;42.770;23.400;2023-08-01T13:05:01;94860.59;;;33.27;28.81
32197;BME280;18697;42.770;23.400;2023-08-01T13:07:26;94849.09;;;32.63;28.91
32197;BME280;18697;42.770;23.400;2023-08-01T13:09:52;94845.56;;;32.39;28.68
32197;BME280;18697;42.770;23.400;2023-08-01T13:12:18;94832.69;;;32.40;30.04
32197;BME280;18697;42.770;23.400;2023-08-01T13:14:43;94831.00;;;32.74;30.14
32197;BME280;18697;42.770;23.400;2023-08-01T13:17:08;94830.03;;;32.95;30.80
32197;BME280;18697;42.770;23.400;2023-08-01T13:19:34;94830.72;;;33.07;29.36
32197;BME280;18697;42.770;23.400;2023-08-01T13:21:59;94835.97;;;33.24;29.13
32197;BME280;18697;42.770;23.400;2023-08-01T13:24:24;94837.41;;;33.37;28.15
32197;BME280;18697;42.770;23.400;2023-08-01T13:26:50;94839.00;;;33.40;27.99
32197;BME280;18697;42.770;23.400;2023-08-01T13:29:15;94841.91;;;33.15;27.11
32197;BME280;18697;42.770;23.400;2023-08-01T13:31:40;94843.91;;;32.98;26.62
32197;BME280;18697;42.770;23.400;2023-08-01T13:34:07;94835.16;;;32.96;27.84
32197;BME280;18697;42.770;23.400;2023-08-01T13:36:32;94835.22;;;32.85;27.94
32197;BME280;18697;42.770;23.400;2023-08-01T13:38:58;94819.88;;;32.80;28.76
32197;BME280;18697;42.770;23.400;2023-08-01T13:41:23;94822.63;;;32.78;28.77
32197;BME280;18697;42.770;23.400;2023-08-01T13:43:49;94813.03;;;32.11;28.74
32197;BME280;18697;42.770;23.400;2023-08-01T13:46:16;94827.75;;;32.06;27.80
32197;BME280;18697;42.770;23.400;2023-08-01T13:48:43;94835.50;;;32.15;27.14
32197;BME280;18697;42.770;23.400;2023-08-01T13:51:09;94824.22;;;32.30;28.19
32197;BME280;18697;42.770;23.400;2023-08-01T13:53:35;94810.09;;;32.34;28.40
32197;BME280;18697;42.770;23.400;2023-08-01T13:56:12;94810.38;;;32.27;27.33
32197;BME280;18697;42.770;23.400;2023-08-01T13:58:38;94805.44;;;32.41;27.95
32197;BME280;18697;42.770;23.400;2023-08-01T14:01:04;94819.66;;;32.02;27.11
32197;BME280;18697;42.770;23.400;2023-08-01T14:03:35;94808.38;;;31.57;27.92
32197;BME280;18697;42.770;23.400;2023-08-01T14:06:07;94799.56;;;32.02;28.71
32197;BME280;18697;42.770;23.400;2023-08-01T14:08:33;94796.53;;;32.23;28.75
32197;BME280;18697;42.770;23.400;2023-08-01T14:11:00;94795.56;;;32.44;27.78
32197;BME280;18697;42.770;23.400;2023-08-01T14:13:26;94797.66;;;32.69;27.83
32197;BME280;18697;42.770;23.400;2023-08-01T14:15:51;94801.00;;;32.77;26.69
32197;BME280;18697;42.770;23.400;2023-08-01T14:18:17;94803.09;;;32.63;26.69
32197;BME280;18697;42.770;23.400;2023-08-01T14:20:42;94802.69;;;32.43;27.26